DW6597 Ellesmere UK current weather conditions

sailwx.info

Wind from 198 at 9 knots gusting 17

Last reported at 2019-Dec-09 04:01 UTC.
Time now 2019-Dec-09 04:30 UTC

Location: N 54°30' W 002°30'.
View on Google Maps.

See reports from other nearby stations

  
Tides and Currents Weather Stations Pressure Air Temp Water Temp Dewpoint Dewpoint Depression Visibility Wind Speed Wind Dir Waves Ship Positions
date/time (UTC)wind fromknots sea level pressurealtimeterstation pressurevisibilityair tempwater tempwave heightnotes
2019-Dec-09 04:01 198 9 gusting 17
2019-Dec-09 03:46 202 11 gusting 19
2019-Dec-09 03:30 230 8 gusting 19
2019-Dec-09 03:15 217 8 gusting 17
2019-Dec-09 03:00 219 10 gusting 23
2019-Dec-09 02:45 234 6 gusting 14
2019-Dec-09 02:30 250 6 gusting 15
2019-Dec-09 02:15 179
2019-Dec-09 02:02 207
2019-Dec-09 01:46 207
2019-Dec-09 01:31 207
2019-Dec-09 01:17 207
2019-Dec-09 01:01 202
2019-Dec-09 00:46 179
2019-Dec-09 00:30 194 0 gusting 6
2019-Dec-09 00:16 098 0 gusting 6
2019-Dec-09 00:01 195 0 gusting 9
2019-Dec-08 23:45 208 3 gusting 11
2019-Dec-08 23:30 190 0 gusting 7
2019-Dec-08 23:15 223
2019-Dec-08 23:00 125
2019-Dec-08 22:47 071
2019-Dec-08 22:31 166
2019-Dec-08 22:16 114 1 gusting 8
2019-Dec-08 22:01 126 3 gusting 9
2019-Dec-08 21:47 106 2 gusting 8
2019-Dec-08 21:31 091 3 gusting 8
2019-Dec-08 21:15 129
2019-Dec-08 21:00 140 4 gusting 10
2019-Dec-08 20:45 090 3 gusting 8
2019-Dec-08 20:30 106 4 gusting 8
2019-Dec-08 20:15 126 4 gusting 10
2019-Dec-08 20:00 146 3 gusting 9
2019-Dec-08 19:45 119 4 gusting 12
2019-Dec-08 19:30 095 4 gusting 11
2019-Dec-08 19:17 094 3 gusting 13
2019-Dec-08 19:01 117 5 gusting 11
2019-Dec-08 18:46 113 4 gusting 14
2019-Dec-08 18:31 091 7 gusting 15
2019-Dec-08 18:16 172 5 gusting 16
2019-Dec-08 18:01 110 3 gusting 11
2019-Dec-08 17:46 119 2 gusting 11
2019-Dec-08 17:30 109 3 gusting 8
2019-Dec-08 17:15 135 2 gusting 7
2019-Dec-08 17:00 134 0 gusting 6
2019-Dec-08 16:45 099 2 gusting 6
2019-Dec-08 16:30 148 2 gusting 12
2019-Dec-08 16:15 118 3 gusting 12
2019-Dec-08 16:00 121 4 gusting 14
2019-Dec-08 15:47 130 3 gusting 12
2019-Dec-08 15:33 132 2 gusting 9
2019-Dec-08 15:16 136 3 gusting 8
2019-Dec-08 15:01 124 3 gusting 11
2019-Dec-08 14:46 166 4 gusting 12
2019-Dec-08 14:30 184 3 gusting 17
2019-Dec-08 14:16 083 4 gusting 13
2019-Dec-08 14:00 206 6 gusting 15
2019-Dec-08 13:45 178 5 gusting 13
2019-Dec-08 13:30 199 2 gusting 17
2019-Dec-08 13:15 120 3 gusting 17
2019-Dec-08 13:00 205 2 gusting 14
2019-Dec-08 12:45 225 2 gusting 6
2019-Dec-08 12:30 120 0 gusting 11
2019-Dec-08 12:18 239 3 gusting 13
2019-Dec-08 12:01 098 2 gusting 12
2019-Dec-08 11:46 175 2 gusting 10
2019-Dec-08 11:30 109 2 gusting 11
2019-Dec-08 11:16 175 5 gusting 17
2019-Dec-08 11:01 213 3 gusting 12
2019-Dec-08 10:45 166 3 gusting 10
2019-Dec-08 10:30 167 6 gusting 17
2019-Dec-08 10:15 184 1 gusting 10
2019-Dec-08 10:01 163 2 gusting 8
2019-Dec-08 09:45 225 5 gusting 16
2019-Dec-08 09:30 180 3 gusting 12
2019-Dec-08 09:15 114 2 gusting 12
2019-Dec-08 09:01 186 1 gusting 8
2019-Dec-08 08:47 178 3 gusting 9
2019-Dec-08 08:32 187 0 gusting 12
2019-Dec-08 08:16 145 1 gusting 10
2019-Dec-08 08:01 177 0 gusting 9
2019-Dec-08 07:47 146 2 gusting 5
2019-Dec-08 07:31 201 2 gusting 8
2019-Dec-08 07:15 207 3 gusting 16
2019-Dec-08 07:01 223 2 gusting 9
2019-Dec-08 06:45 134 0 gusting 6
2019-Dec-08 06:30 238 2 gusting 6
2019-Dec-08 06:15 188 3 gusting 10
2019-Dec-08 06:00 232 5 gusting 17
2019-Dec-08 05:45 248 6 gusting 15
2019-Dec-08 05:31 205 6 gusting 13
2019-Dec-08 05:17 254 1 gusting 10
2019-Dec-08 05:01 211 2 gusting 13
2019-Dec-08 04:47 244 4 gusting 16
2019-Dec-08 04:30 193 3 gusting 13
2019-Dec-08 04:16 210 2 gusting 8
2019-Dec-08 04:01 225 3 gusting 11
2019-Dec-08 03:45 216 1 gusting 10
2019-Dec-08 03:30 251 6 gusting 13
2019-Dec-08 03:15 174 4 gusting 10
2019-Dec-08 03:00 204 4 gusting 13
2019-Dec-08 02:45 174 5 gusting 17
2019-Dec-08 02:30 205 0 gusting 6
2019-Dec-08 02:15 124 2 gusting 7
2019-Dec-08 02:03 114 3 gusting 7
2019-Dec-08 01:46 119 2 gusting 12
2019-Dec-08 01:32 133 3 gusting 12
2019-Dec-08 01:16 110 5 gusting 12
2019-Dec-08 01:01 100 6 gusting 14
2019-Dec-08 00:46 117 7 gusting 19
2019-Dec-08 00:31 135 7 gusting 19
2019-Dec-08 00:15 111 6 gusting 14
2019-Dec-08 00:00 117 7 gusting 18
2019-Dec-07 23:45 107 11 gusting 19
2019-Dec-07 23:30 132 7 gusting 16
2019-Dec-07 23:15 121 9 gusting 16
2019-Dec-07 23:00 124 9 gusting 18
2019-Dec-07 22:47 121 12 gusting 20
2019-Dec-07 22:31 104 11 gusting 20
2019-Dec-07 22:16 120 12 gusting 20
2019-Dec-07 22:02 131 10 gusting 20
2019-Dec-07 21:46 128 7 gusting 19
2019-Dec-07 21:31 113 8 gusting 18
2019-Dec-07 21:15 113 6 gusting 14
2019-Dec-07 21:00 103 7 gusting 14
2019-Dec-07 20:45 104 9 gusting 19
2019-Dec-07 20:31 097 9 gusting 20
2019-Dec-07 20:15 111 8 gusting 18
2019-Dec-07 20:00 092 9 gusting 19
2019-Dec-07 19:45 104 8 gusting 18
2019-Dec-07 19:31 113 9 gusting 14
2019-Dec-07 19:16 109 8 gusting 14
2019-Dec-07 19:01 105 6 gusting 12
2019-Dec-07 18:46 099 7 gusting 14
2019-Dec-07 18:31 112 9 gusting 15
2019-Dec-07 18:16 101 11 gusting 18
2019-Dec-07 18:00 134 10 gusting 16
2019-Dec-07 17:46 123 9 gusting 14
2019-Dec-07 17:30 109 6 gusting 14
2019-Dec-07 17:15 101 7 gusting 12
2019-Dec-07 17:00 103 6 gusting 13
2019-Dec-07 16:45 100 3 gusting 9
2019-Dec-07 16:30 092 0 gusting 6
2019-Dec-07 16:15 186 0 gusting 5
2019-Dec-07 16:00 128 1 gusting 10
2019-Dec-07 15:47 136 4 gusting 14
2019-Dec-07 15:32 128 3 gusting 11
2019-Dec-07 15:16 111 4 gusting 10
2019-Dec-07 15:02 109 4 gusting 12
2019-Dec-07 14:46 109 1 gusting 8
2019-Dec-07 14:31 128 1 gusting 10
2019-Dec-07 14:16 123 2 gusting 8
2019-Dec-07 14:02 181 1 gusting 9
2019-Dec-07 13:47 120 3 gusting 14
2019-Dec-07 13:31 192 2 gusting 8
2019-Dec-07 13:16 098 1 gusting 10
2019-Dec-07 13:01 160 2 gusting 8
2019-Dec-07 12:46 165 1 gusting 7
2019-Dec-07 12:31 148 2 gusting 8
2019-Dec-07 12:16 108 4 gusting 12
2019-Dec-07 12:00 173 5 gusting 11
2019-Dec-07 11:46 128 2 gusting 11
2019-Dec-07 11:31 134 3 gusting 10
2019-Dec-07 11:15 133
2019-Dec-07 11:00 102
2019-Dec-07 10:46 098 2 gusting 7
2019-Dec-07 10:30 130 2 gusting 7
2019-Dec-07 10:15 099
2019-Dec-07 10:04 102 0 gusting 7
2019-Dec-07 09:46 103 2 gusting 6
2019-Dec-07 09:31 105
2019-Dec-07 09:16 100
2019-Dec-07 09:01 113
2019-Dec-07 08:46 160
2019-Dec-07 08:31 150
2019-Dec-07 08:15 105
2019-Dec-07 08:00 144
2019-Dec-07 07:45 112
2019-Dec-07 07:30 185
2019-Dec-07 07:15 185
2019-Dec-07 07:00 158
2019-Dec-07 06:45 125
2019-Dec-07 06:32 128
2019-Dec-07 06:16 194
2019-Dec-07 06:02 194
2019-Dec-07 05:46 184
2019-Dec-07 05:31 194
2019-Dec-07 05:16 113
2019-Dec-07 05:01 113
2019-Dec-07 04:45 108
2019-Dec-07 04:30 101
2019-Dec-07 04:16 138
2019-Dec-07 04:00 138